Tunis, Tunisia
Current Conditions -  °F | °C
As of 12:00 AM on Thursday 23 Oct 2014 (Local Time) from DTTA Reporting Station
Broken Clouds Broken Clouds  
Wind Chill: 66°   Ceiling: 2600
Heat Index: 66°   Visibility: 5mi
Dew Point: 50°   Wind: 20mph
Humidity: 56%   Direction: 290°WNW
Pressure: 29.97"   Gusts: NA
Location:  36.84°N, 10.22°E
Report Text: DTTA 222300Z 29017KT 260V320 8000 BKN026 19/10 Q1015 NOSIG
Loading
Personal Weather Stations






























Interactive Weather Map New forecast layout! Learn more

10-Day Weather Forecast

Advertisements
Track Severe Weather on mobile